Auburn, Missouri
Current Conditions -  °F | °C
As of 6:54 PM on Saturday 20 Dec 2014 (Local Time) from KSET Reporting Station
Overcast Overcast  
Wind Chill: 36°   Ceiling: 2800
Heat Index: 39°   Visibility: 8mi
Dew Point: 36°   Wind: 5mph
Humidity: 89%   Direction: 100°E
Pressure: 30.25"   Gusts: NA
Location:  39.1646°N, 90.8436°W
Report Text: KSET 210054Z AUTO 10004KT 8SM OVC028 04/02 A3025 RMK AO2 SLP246 T00390022
Loading
Personal Weather Stations






























Interactive Weather Map New forecast layout! Learn more

10-Day Weather Forecast

Advertisements
Track Severe Weather on mobile